CML4 weather

Morrison Lake Seaplane Base
Gravenhurst, Ontario, Canada

Public forecast

Using degrees Celsius for public forecast. Weather courtesy of forecast.io.

Closest aviation weather report (METAR) to Morrison Lake Seaplane Base

Closest report is Muskoka Airport, 9.2 nm (17.0 km) NE. Retrieved 2019/10/15 20:00 UTC (11 seconds ago):

CYQA 152000Z AUTO 18006KT 130V210 9SM SCT090 SCT150 BKN170 BKN190 12/02 A2998 RMK SLP159

Closest aviation forecast (TAF) to Morrison Lake Seaplane Base

Closest forecast is Muskoka Airport, 9.2 nm (17.0 km) NE. Retrieved 2019/10/15 20:00 UTC (11 seconds ago):

TAF CYQA 151941Z 1520/1602 14008KT P6SM SCT150 BKN190 RMK FCST BASED ON AUTO OBS NXT FCST WILL BE ISSUED AT 161145Z